createdAt,value
2017-10-11T00:00:01.697Z,15.20
2017-10-11T00:02:29.279Z,15.10
2017-10-11T00:04:56.939Z,15.00
2017-10-11T00:07:24.501Z,15.10
2017-10-11T00:09:52.082Z,15.10
2017-10-11T00:12:19.644Z,14.90
2017-10-11T00:14:47.200Z,14.90
2017-10-11T00:17:15.611Z,15.00
2017-10-11T00:19:43.285Z,14.90
2017-10-11T00:22:10.861Z,15.00
2017-10-11T00:24:39.221Z,15.00
2017-10-11T00:27:06.851Z,15.00
2017-10-11T00:29:34.438Z,15.00
2017-10-11T00:32:02.084Z,15.00
2017-10-11T00:34:29.660Z,15.00
2017-10-11T00:36:57.224Z,15.00
2017-10-11T00:39:24.830Z,15.00
2017-10-11T00:41:52.430Z,14.90
2017-10-11T00:44:19.984Z,15.00
2017-10-11T00:46:47.616Z,15.00
2017-10-11T00:49:15.934Z,14.90
2017-10-11T00:51:43.526Z,14.90
2017-10-11T00:54:11.158Z,14.80
2017-10-11T00:56:38.772Z,14.90
2017-10-11T00:59:06.367Z,14.90
2017-10-11T01:01:33.995Z,14.90
2017-10-11T01:04:02.346Z,14.90
2017-10-11T01:06:29.924Z,14.90
2017-10-11T01:08:57.530Z,14.90
2017-10-11T01:11:25.118Z,14.90
2017-10-11T01:13:52.745Z,14.90
2017-10-11T01:16:20.297Z,14.80
2017-10-11T01:18:48.696Z,14.80
2017-10-11T01:21:16.270Z,14.80
2017-10-11T01:23:43.935Z,14.80
2017-10-11T01:26:11.575Z,14.80
2017-10-11T01:28:39.146Z,14.80
2017-10-11T01:31:06.730Z,14.70
2017-10-11T01:33:34.328Z,14.60
2017-10-11T01:36:01.932Z,14.60
2017-10-11T01:38:29.527Z,14.60
2017-10-11T01:40:57.893Z,14.60
2017-10-11T01:43:25.456Z,14.60
2017-10-11T01:45:53.089Z,14.60
2017-10-11T01:48:20.748Z,14.50
2017-10-11T01:50:48.306Z,14.50
2017-10-11T01:53:15.890Z,14.50
2017-10-11T01:55:43.530Z,14.40
2017-10-11T01:58:11.132Z,14.50
2017-10-11T02:00:38.743Z,14.40
2017-10-11T02:03:06.357Z,14.40
2017-10-11T02:05:33.937Z,14.40
2017-10-11T02:08:02.281Z,14.40
2017-10-11T02:10:29.895Z,14.40
2017-10-11T02:12:57.506Z,14.40
2017-10-11T02:15:25.101Z,14.40
2017-10-11T02:17:53.444Z,14.40
2017-10-11T02:20:20.996Z,14.40
2017-10-11T02:22:48.605Z,14.50
2017-10-11T02:25:16.181Z,14.50
2017-10-11T02:27:43.789Z,14.40
2017-10-11T02:30:11.397Z,14.50
2017-10-11T02:32:38.960Z,14.40
2017-10-11T02:35:06.542Z,14.40
2017-10-11T02:37:34.150Z,14.40
2017-10-11T02:40:03.038Z,14.40
2017-10-11T02:42:31.402Z,14.40
2017-10-11T02:44:58.962Z,14.30
2017-10-11T02:47:26.576Z,14.30
2017-10-11T02:49:54.172Z,14.10
2017-10-11T02:52:21.758Z,14.10
2017-10-11T02:54:50.088Z,14.20
2017-10-11T02:57:17.683Z,14.20
2017-10-11T02:59:45.284Z,14.20
2017-10-11T03:02:12.880Z,14.20
2017-10-11T03:04:40.453Z,14.20
2017-10-11T03:07:08.013Z,14.20
2017-10-11T03:09:35.613Z,14.30
2017-10-11T03:12:03.202Z,14.40
2017-10-11T03:14:30.814Z,14.40
2017-10-11T03:16:59.142Z,14.40
2017-10-11T03:19:26.716Z,14.30
2017-10-11T03:21:55.074Z,14.40
2017-10-11T03:24:22.669Z,14.40
2017-10-11T03:26:50.243Z,14.50
2017-10-11T03:29:18.701Z,14.40
2017-10-11T03:31:46.288Z,14.50
2017-10-11T03:34:13.885Z,14.60
2017-10-11T03:36:41.496Z,14.50
2017-10-11T03:39:09.093Z,14.60
2017-10-11T03:41:36.657Z,14.60
2017-10-11T03:44:04.273Z,14.60
2017-10-11T03:46:31.826Z,14.60
2017-10-11T03:48:59.388Z,14.50
2017-10-11T03:51:26.949Z,14.60
2017-10-11T03:53:54.556Z,14.60
2017-10-11T03:56:22.150Z,14.60
2017-10-11T03:58:49.724Z,14.60
2017-10-11T04:01:17.328Z,14.60
2017-10-11T04:03:44.928Z,14.60
2017-10-11T04:06:12.506Z,14.60
2017-10-11T04:08:40.116Z,14.50
2017-10-11T04:11:07.733Z,14.60
2017-10-11T04:13:35.307Z,14.60
2017-10-11T04:16:02.893Z,14.50
2017-10-11T04:18:31.329Z,14.40
2017-10-11T04:20:58.971Z,14.40
2017-10-11T04:23:26.593Z,14.40
2017-10-11T04:25:54.966Z,14.40
2017-10-11T04:28:23.316Z,14.50
2017-10-11T04:30:50.967Z,14.50
2017-10-11T04:33:18.573Z,14.50
2017-10-11T04:35:47.020Z,14.60
2017-10-11T04:38:14.690Z,14.60
2017-10-11T04:40:42.417Z,14.50
2017-10-11T04:43:10.015Z,14.40
2017-10-11T04:45:37.587Z,14.50
2017-10-11T04:48:05.186Z,14.50
2017-10-11T04:50:32.749Z,14.60
2017-10-11T04:53:00.477Z,14.70
2017-10-11T04:55:28.053Z,14.70
2017-10-11T04:57:55.668Z,14.70
2017-10-11T05:00:23.259Z,14.60
2017-10-11T05:02:50.860Z,14.60
2017-10-11T05:05:18.438Z,14.60
2017-10-11T05:07:46.034Z,14.60
2017-10-11T05:10:14.379Z,14.60
2017-10-11T05:12:41.958Z,14.60
2017-10-11T05:15:09.504Z,14.50
2017-10-11T05:17:37.100Z,14.40
2017-10-11T05:20:05.445Z,14.50
2017-10-11T05:22:33.054Z,14.50
2017-10-11T05:25:00.641Z,14.50
2017-10-11T05:27:28.202Z,14.50
2017-10-11T05:29:55.805Z,14.50
2017-10-11T05:32:23.394Z,14.50
2017-10-11T05:34:50.941Z,14.50
2017-10-11T05:37:19.272Z,14.50
2017-10-11T05:39:46.826Z,14.50
2017-10-11T05:42:14.399Z,14.50
2017-10-11T05:44:41.974Z,14.50
2017-10-11T05:47:09.568Z,14.40
2017-10-11T05:49:37.161Z,14.50
2017-10-11T05:52:04.759Z,14.50
2017-10-11T05:54:32.330Z,14.50
2017-10-11T05:56:59.948Z,14.60
2017-10-11T05:59:27.525Z,14.60
2017-10-11T06:01:55.080Z,14.60
2017-10-11T06:04:23.418Z,14.70
2017-10-11T06:06:50.997Z,14.70
2017-10-11T06:09:18.550Z,14.70
2017-10-11T06:11:46.133Z,14.70
2017-10-11T06:14:13.693Z,14.70
2017-10-11T06:16:41.251Z,14.60
2017-10-11T06:19:08.858Z,14.60
2017-10-11T06:21:37.171Z,14.80
2017-10-11T06:24:04.770Z,14.80
2017-10-11T06:26:32.380Z,14.70
2017-10-11T06:28:59.956Z,14.70
2017-10-11T06:31:27.516Z,14.60
2017-10-11T06:33:55.135Z,14.60
2017-10-11T06:36:23.486Z,14.70
2017-10-11T06:38:51.853Z,14.70
2017-10-11T06:41:19.486Z,14.70
2017-10-11T06:43:47.054Z,14.80
2017-10-11T06:46:15.403Z,15.00
2017-10-11T06:48:42.988Z,14.90
2017-10-11T06:51:10.583Z,14.90
2017-10-11T06:53:38.166Z,14.90
2017-10-11T06:56:05.846Z,14.90
2017-10-11T06:58:34.276Z,14.90
2017-10-11T07:01:01.825Z,14.90
2017-10-11T07:03:29.421Z,14.80
2017-10-11T07:05:57.810Z,14.90
2017-10-11T07:08:26.178Z,14.90
2017-10-11T07:10:54.529Z,14.90
2017-10-11T07:13:22.120Z,14.90
2017-10-11T07:15:50.480Z,15.00
2017-10-11T07:18:18.070Z,15.00
2017-10-11T07:20:46.395Z,15.00
2017-10-11T07:23:13.945Z,15.00
2017-10-11T07:25:41.570Z,15.10
2017-10-11T07:28:09.154Z,15.00
2017-10-11T07:30:36.760Z,15.00
2017-10-11T07:33:04.340Z,15.00
2017-10-11T07:35:32.734Z,15.10
2017-10-11T07:38:00.290Z,15.10
2017-10-11T07:40:27.868Z,15.10
2017-10-11T07:42:55.483Z,15.20
2017-10-11T07:45:23.082Z,15.20
2017-10-11T07:47:50.665Z,15.40
2017-10-11T07:50:18.234Z,15.40
2017-10-11T07:52:45.811Z,15.40
2017-10-11T07:55:13.406Z,15.40
2017-10-11T07:57:40.982Z,15.40
2017-10-11T08:00:08.565Z,15.50
2017-10-11T08:02:36.137Z,15.60
2017-10-11T08:05:03.737Z,15.60
2017-10-11T08:07:32.119Z,15.70
2017-10-11T08:10:00.701Z,15.70
2017-10-11T08:12:29.025Z,15.80
2017-10-11T08:14:56.583Z,15.80
2017-10-11T08:17:24.192Z,15.70
2017-10-11T08:19:52.560Z,15.70
2017-10-11T08:22:20.188Z,15.70
2017-10-11T08:24:47.794Z,15.70
2017-10-11T08:27:16.170Z,15.90
2017-10-11T08:29:44.534Z,15.90
2017-10-11T08:32:12.158Z,15.90
2017-10-11T08:34:39.735Z,16.00
2017-10-11T08:37:07.330Z,16.00
2017-10-11T08:39:35.661Z,15.90
2017-10-11T08:42:03.233Z,15.90
2017-10-11T08:44:30.793Z,15.90
2017-10-11T08:46:58.384Z,16.00
2017-10-11T08:49:25.964Z,15.90
2017-10-11T08:51:53.539Z,16.00
2017-10-11T08:54:21.130Z,16.10
2017-10-11T08:56:48.754Z,16.10
2017-10-11T08:59:16.349Z,16.20
2017-10-11T09:01:43.944Z,16.20
2017-10-11T09:04:11.541Z,16.20
2017-10-11T09:06:39.136Z,16.20
2017-10-11T09:09:06.759Z,16.10
2017-10-11T09:11:34.318Z,16.10
2017-10-11T09:14:01.891Z,16.20
2017-10-11T09:16:29.559Z,16.20
2017-10-11T09:18:57.156Z,16.20
2017-10-11T09:21:24.774Z,16.20
2017-10-11T09:23:52.362Z,16.30
2017-10-11T09:26:19.922Z,16.30
2017-10-11T09:28:47.526Z,16.50
2017-10-11T09:31:15.870Z,16.60
2017-10-11T09:33:43.505Z,16.60
2017-10-11T09:36:11.118Z,16.80
2017-10-11T09:38:39.504Z,16.80
2017-10-11T09:41:07.813Z,16.80
2017-10-11T09:43:35.414Z,16.70
2017-10-11T09:46:03.028Z,16.80
2017-10-11T09:48:30.585Z,16.80
2017-10-11T09:50:58.189Z,16.80
2017-10-11T09:53:25.744Z,16.80
2017-10-11T09:55:53.306Z,16.80
2017-10-11T09:58:20.864Z,16.70
2017-10-11T10:00:48.508Z,16.60
2017-10-11T10:03:16.086Z,16.30
2017-10-11T10:05:43.698Z,16.40
2017-10-11T10:08:11.312Z,16.30
2017-10-11T10:10:38.932Z,16.30
2017-10-11T10:13:06.521Z,16.10
2017-10-11T10:15:34.095Z,16.20
2017-10-11T10:18:01.681Z,16.10
2017-10-11T10:20:30.027Z,16.10
2017-10-11T10:22:57.602Z,16.10
2017-10-11T10:25:25.216Z,16.10
2017-10-11T10:27:52.849Z,16.10
2017-10-11T10:30:21.169Z,16.00
2017-10-11T10:32:48.797Z,16.00
2017-10-11T10:35:16.427Z,16.10
2017-10-11T10:37:44.793Z,16.20
2017-10-11T10:40:12.396Z,16.20
2017-10-11T10:42:39.973Z,16.10
2017-10-11T10:45:07.609Z,16.10
2017-10-11T10:47:35.196Z,16.10
2017-10-11T10:50:02.806Z,15.90
2017-10-11T10:52:30.452Z,15.90
2017-10-11T10:54:58.106Z,15.90
2017-10-11T10:57:25.724Z,16.00
2017-10-11T10:59:53.327Z,16.20
2017-10-11T11:02:20.894Z,16.40
2017-10-11T11:04:48.525Z,16.60
2017-10-11T11:07:16.105Z,16.70
2017-10-11T11:09:44.419Z,17.30
2017-10-11T11:12:12.054Z,17.20
2017-10-11T11:14:39.620Z,17.40
2017-10-11T11:17:07.187Z,17.70
2017-10-11T11:19:34.818Z,17.70
2017-10-11T11:22:02.383Z,17.80
2017-10-11T11:24:30.002Z,18.00
2017-10-11T11:26:58.366Z,17.90
2017-10-11T11:29:26.710Z,17.80
2017-10-11T11:31:54.310Z,17.70
2017-10-11T11:34:21.884Z,17.50
2017-10-11T11:36:49.470Z,17.40
2017-10-11T11:39:17.071Z,17.40
2017-10-11T11:41:44.718Z,17.20
2017-10-11T11:44:12.315Z,17.30
2017-10-11T11:46:39.876Z,17.20
2017-10-11T11:49:07.477Z,17.20
2017-10-11T11:51:35.064Z,17.10
2017-10-11T11:54:02.651Z,16.90
2017-10-11T11:56:30.236Z,16.90
2017-10-11T11:58:57.837Z,16.90
2017-10-11T12:01:25.409Z,16.90
2017-10-11T12:03:53.023Z,16.90
2017-10-11T12:06:20.613Z,16.90
2017-10-11T12:08:48.177Z,16.70
2017-10-11T12:11:15.758Z,16.50
2017-10-11T12:13:43.321Z,16.50
2017-10-11T12:16:10.953Z,16.40
2017-10-11T12:18:38.556Z,16.30
2017-10-11T12:21:06.933Z,16.10
2017-10-11T12:23:35.272Z,16.10
2017-10-11T12:26:02.898Z,16.00
2017-10-11T12:28:30.486Z,16.00
2017-10-11T12:30:58.059Z,16.10
2017-10-11T12:33:25.645Z,16.00
2017-10-11T12:35:53.991Z,16.20
2017-10-11T12:38:21.657Z,16.20
2017-10-11T12:40:49.256Z,16.20
2017-10-11T12:43:17.589Z,16.50
2017-10-11T12:45:45.144Z,16.50
2017-10-11T12:48:12.709Z,16.70
2017-10-11T12:50:40.425Z,16.70
2017-10-11T12:53:07.983Z,16.70
2017-10-11T12:55:35.592Z,16.80
2017-10-11T12:58:03.959Z,16.90
2017-10-11T13:00:31.544Z,16.90
2017-10-11T13:02:59.121Z,16.90
2017-10-11T13:05:27.489Z,16.80
2017-10-11T13:07:55.049Z,16.90
2017-10-11T13:10:22.626Z,17.00
2017-10-11T13:12:50.223Z,17.20
2017-10-11T13:15:17.854Z,17.20
2017-10-11T13:17:46.200Z,17.20
2017-10-11T13:20:13.794Z,17.30
2017-10-11T13:22:41.419Z,17.00
2017-10-11T13:25:09.065Z,17.10
2017-10-11T13:27:36.664Z,17.10
2017-10-11T13:30:05.070Z,17.00
2017-10-11T13:32:32.691Z,17.00
2017-10-11T13:35:00.296Z,16.90
2017-10-11T13:37:27.856Z,17.00
2017-10-11T13:39:55.419Z,17.20
2017-10-11T13:42:23.078Z,17.20
2017-10-11T13:44:50.685Z,17.20
2017-10-11T13:47:18.291Z,17.20
2017-10-11T13:49:45.885Z,17.10
2017-10-11T13:52:13.455Z,17.00
2017-10-11T13:54:41.037Z,17.00
2017-10-11T13:57:08.630Z,17.00
2017-10-11T13:59:36.194Z,16.90
2017-10-11T14:02:03.791Z,16.70
2017-10-11T14:04:31.381Z,16.80
2017-10-11T14:06:59.737Z,16.80
2017-10-11T14:09:27.306Z,16.80
2017-10-11T14:11:54.891Z,16.80
2017-10-11T14:14:23.272Z,16.70
2017-10-11T14:16:51.811Z,16.70
2017-10-11T14:19:19.397Z,16.60
2017-10-11T14:21:47.013Z,16.50
2017-10-11T14:24:14.581Z,16.40
2017-10-11T14:26:42.465Z,16.30
2017-10-11T14:29:10.118Z,16.30
2017-10-11T14:31:37.667Z,16.10
2017-10-11T14:34:05.250Z,16.20
2017-10-11T14:36:32.837Z,16.20
2017-10-11T14:39:00.494Z,16.20
2017-10-11T14:41:28.917Z,16.10
2017-10-11T14:43:56.547Z,16.10
2017-10-11T14:46:24.928Z,16.20
2017-10-11T14:48:52.547Z,16.20
2017-10-11T14:51:20.253Z,16.20
2017-10-11T14:53:47.822Z,16.20
2017-10-11T14:56:15.422Z,16.20
2017-10-11T14:58:43.066Z,16.20
2017-10-11T15:01:10.685Z,16.20
2017-10-11T15:03:39.052Z,16.20
2017-10-11T15:06:06.649Z,16.20
2017-10-11T15:08:34.285Z,16.10
2017-10-11T15:11:01.892Z,16.20
2017-10-11T15:13:29.485Z,16.20
2017-10-11T15:15:57.137Z,16.20
2017-10-11T15:18:24.738Z,16.10
2017-10-11T15:20:52.323Z,16.10
2017-10-11T15:23:19.936Z,16.20
2017-10-11T15:25:47.506Z,16.10
2017-10-11T15:28:15.835Z,16.00
2017-10-11T15:30:43.446Z,16.00
2017-10-11T15:33:11.799Z,16.00
2017-10-11T15:35:39.416Z,16.00
2017-10-11T15:38:07.625Z,15.80
2017-10-11T15:40:35.960Z,15.80
2017-10-11T15:43:03.588Z,15.80
2017-10-11T15:45:31.195Z,15.90
2017-10-11T15:47:58.782Z,15.90
2017-10-11T15:50:26.405Z,15.80
2017-10-11T15:52:54.023Z,15.80
2017-10-11T15:55:21.608Z,15.70
2017-10-11T15:57:49.228Z,15.80
2017-10-11T16:00:17.652Z,15.70
2017-10-11T16:02:45.988Z,15.70
2017-10-11T16:05:13.607Z,15.70
2017-10-11T16:07:41.219Z,15.70
2017-10-11T16:10:08.862Z,15.60
2017-10-11T16:12:36.424Z,15.70
2017-10-11T16:15:04.074Z,15.70
2017-10-11T16:17:31.637Z,15.80
2017-10-11T16:19:59.246Z,15.80
2017-10-11T16:22:27.647Z,15.70
2017-10-11T16:24:55.263Z,15.70
2017-10-11T16:27:22.863Z,15.70
2017-10-11T16:29:50.485Z,15.70
2017-10-11T16:32:18.114Z,15.80
2017-10-11T16:34:45.705Z,15.70
2017-10-11T16:37:13.363Z,15.70
2017-10-11T16:39:40.968Z,15.80
2017-10-11T16:42:08.600Z,15.70
2017-10-11T16:44:36.988Z,15.70
2017-10-11T16:47:04.607Z,15.60
2017-10-11T16:49:32.273Z,15.70
2017-10-11T16:51:59.914Z,15.60
2017-10-11T16:54:27.573Z,15.60
2017-10-11T16:56:55.230Z,15.60
2017-10-11T16:59:22.987Z,15.60
2017-10-11T17:01:51.035Z,15.60
2017-10-11T17:04:19.398Z,15.60
2017-10-11T17:06:47.076Z,15.60
2017-10-11T17:09:14.731Z,15.60
2017-10-11T17:11:43.119Z,15.60
2017-10-11T17:16:45.542Z,15.50
2017-10-11T17:19:13.175Z,15.50
2017-10-11T17:21:40.793Z,15.50
2017-10-11T17:24:08.405Z,15.50
2017-10-11T17:26:36.803Z,15.50
2017-10-11T17:29:04.415Z,15.50
2017-10-11T17:31:32.024Z,15.60
2017-10-11T17:33:59.669Z,15.50
2017-10-11T17:36:27.270Z,15.60
2017-10-11T17:38:54.884Z,15.60
2017-10-11T17:41:22.501Z,15.50
2017-10-11T17:43:50.122Z,15.50
2017-10-11T17:46:17.791Z,15.50
2017-10-11T17:48:45.389Z,15.50
2017-10-11T17:51:13.048Z,15.50
2017-10-11T17:53:40.862Z,15.50
2017-10-11T17:56:09.254Z,15.50
2017-10-11T17:58:36.831Z,15.50
2017-10-11T18:01:04.511Z,15.50
2017-10-11T18:03:32.104Z,15.50
2017-10-11T18:05:59.786Z,15.50
2017-10-11T18:08:27.905Z,15.50
2017-10-11T18:10:55.509Z,15.50
2017-10-11T18:13:23.911Z,15.50
2017-10-11T18:15:51.596Z,15.50
2017-10-11T18:18:19.389Z,15.50
2017-10-11T18:20:47.023Z,15.60
2017-10-11T18:23:14.668Z,15.50
2017-10-11T18:25:42.342Z,15.50
2017-10-11T18:28:10.069Z,15.60
2017-10-11T18:30:37.737Z,15.50
2017-10-11T18:33:06.218Z,15.50
2017-10-11T18:35:34.683Z,15.60
2017-10-11T18:38:02.302Z,15.50
2017-10-11T18:40:29.868Z,15.60
2017-10-11T18:42:58.278Z,15.50
2017-10-11T18:45:25.851Z,15.50
2017-10-11T18:47:54.245Z,15.50
2017-10-11T18:50:21.838Z,15.50
2017-10-11T18:52:49.458Z,15.40
2017-10-11T18:55:17.118Z,15.50
2017-10-11T18:57:44.823Z,15.50
2017-10-11T19:00:12.471Z,15.40
2017-10-11T19:02:40.055Z,15.40
2017-10-11T19:05:07.654Z,15.40
2017-10-11T19:07:35.745Z,15.30
2017-10-11T19:10:03.477Z,15.30
2017-10-11T19:12:31.950Z,15.20
2017-10-11T19:14:59.586Z,15.20
2017-10-11T19:17:27.204Z,15.20
2017-10-11T19:19:55.599Z,15.30
2017-10-11T19:22:23.182Z,15.20
2017-10-11T19:24:50.881Z,15.30
2017-10-11T19:27:18.561Z,15.30
2017-10-11T19:29:46.995Z,15.30
2017-10-11T19:32:15.131Z,15.30
2017-10-11T19:34:43.010Z,15.30
2017-10-11T19:37:10.597Z,15.40
2017-10-11T19:39:38.262Z,15.40
2017-10-11T19:42:05.926Z,15.30
2017-10-11T19:44:33.620Z,15.40
2017-10-11T19:47:01.996Z,15.40
2017-10-11T19:49:29.662Z,15.40
2017-10-11T19:51:58.029Z,15.60
2017-10-11T19:54:25.682Z,15.50
2017-10-11T19:56:53.325Z,15.50
2017-10-11T19:59:20.927Z,15.60
2017-10-11T20:01:48.957Z,15.50
2017-10-11T20:04:16.585Z,15.50
2017-10-11T20:06:44.201Z,15.60
2017-10-11T20:09:11.796Z,15.60
2017-10-11T20:11:39.388Z,15.70
2017-10-11T20:14:06.974Z,15.80
2017-10-11T20:16:34.531Z,15.80
2017-10-11T20:19:02.189Z,15.80
2017-10-11T20:21:29.853Z,15.80
2017-10-11T20:23:57.414Z,15.80
2017-10-11T20:26:25.052Z,15.70
2017-10-11T20:28:53.572Z,15.60
2017-10-11T20:31:21.197Z,15.60
2017-10-11T20:33:48.889Z,15.60
2017-10-11T20:36:16.486Z,15.60
2017-10-11T20:38:44.104Z,15.50
2017-10-11T20:41:11.687Z,15.60
2017-10-11T20:43:40.018Z,15.60
2017-10-11T20:46:07.605Z,15.60
2017-10-11T20:48:35.243Z,15.60
2017-10-11T20:51:02.815Z,15.60
2017-10-11T20:53:30.464Z,15.60
2017-10-11T20:55:58.306Z,15.60
2017-10-11T20:58:25.890Z,15.70
2017-10-11T21:00:53.557Z,15.70
2017-10-11T21:03:21.150Z,15.60
2017-10-11T21:05:48.728Z,15.60
2017-10-11T21:08:17.084Z,15.60
2017-10-11T21:10:44.698Z,15.50
2017-10-11T21:13:12.392Z,15.50
2017-10-11T21:15:39.976Z,15.50
2017-10-11T21:18:08.336Z,15.50
2017-10-11T21:20:35.971Z,15.40
2017-10-11T21:23:03.655Z,15.50
2017-10-11T21:25:31.276Z,15.40
2017-10-11T21:27:58.894Z,15.40
2017-10-11T21:30:27.280Z,15.20
2017-10-11T21:32:54.909Z,15.20
2017-10-11T21:35:22.508Z,15.20
2017-10-11T21:37:50.144Z,15.20
2017-10-11T21:40:17.764Z,15.20
2017-10-11T21:42:45.364Z,15.20
2017-10-11T21:45:13.063Z,15.10
2017-10-11T21:47:40.648Z,15.10
2017-10-11T21:50:08.254Z,15.00
2017-10-11T21:52:35.899Z,15.00
2017-10-11T21:55:03.564Z,15.00
2017-10-11T21:57:31.201Z,15.10
2017-10-11T21:59:58.780Z,15.10
2017-10-11T22:02:26.382Z,15.10
2017-10-11T22:04:54.816Z,15.20
2017-10-11T22:07:22.475Z,15.10
2017-10-11T22:09:50.091Z,15.20
2017-10-11T22:12:17.705Z,15.20
2017-10-11T22:14:45.298Z,15.30
2017-10-11T22:17:13.036Z,15.30
2017-10-11T22:19:40.650Z,15.30
2017-10-11T22:22:08.318Z,15.40
2017-10-11T22:24:35.933Z,15.40
2017-10-11T22:27:03.485Z,15.40
2017-10-11T22:29:31.121Z,15.40
2017-10-11T22:31:58.742Z,15.30
2017-10-11T22:34:27.082Z,15.30
2017-10-11T22:36:54.721Z,15.30
2017-10-11T22:39:22.311Z,15.40
2017-10-11T22:41:49.905Z,15.30
2017-10-11T22:44:17.509Z,15.30
2017-10-11T22:46:45.099Z,15.30
2017-10-11T22:49:12.914Z,15.30
2017-10-11T22:51:40.538Z,15.30
2017-10-11T22:54:08.159Z,15.30
2017-10-11T22:56:35.783Z,15.30
2017-10-11T22:59:03.415Z,15.40
2017-10-11T23:01:30.994Z,15.40
2017-10-11T23:03:59.331Z,15.50
2017-10-11T23:06:26.955Z,15.50
2017-10-11T23:08:54.530Z,15.50
2017-10-11T23:11:23.035Z,15.50
2017-10-11T23:13:50.650Z,15.60
2017-10-11T23:16:18.256Z,15.50
2017-10-11T23:18:45.856Z,15.60
2017-10-11T23:21:13.443Z,15.60
2017-10-11T23:23:41.294Z,15.60
2017-10-11T23:26:08.857Z,15.70
2017-10-11T23:28:36.459Z,15.60
2017-10-11T23:31:04.060Z,15.60
2017-10-11T23:33:32.868Z,15.60
2017-10-11T23:36:00.474Z,15.60
2017-10-11T23:38:28.050Z,15.60
2017-10-11T23:40:55.641Z,15.70
2017-10-11T23:43:23.268Z,15.70
2017-10-11T23:45:50.883Z,15.70
2017-10-11T23:48:18.738Z,15.60
2017-10-11T23:50:46.369Z,15.60
2017-10-11T23:53:14.735Z,15.70
2017-10-11T23:55:42.297Z,15.70
2017-10-11T23:58:09.931Z,15.70
